createdAt,value
2023-04-16T00:00:08.593Z,99.90
2023-04-16T00:02:40.064Z,99.90
2023-04-16T00:05:09.708Z,99.90
2023-04-16T00:07:38.027Z,99.90
2023-04-16T00:10:07.330Z,99.90
2023-04-16T00:12:35.616Z,99.90
2023-04-16T00:15:03.987Z,99.90
2023-04-16T00:17:32.499Z,99.90
2023-04-16T00:20:01.108Z,99.90
2023-04-16T00:22:29.509Z,99.90
2023-04-16T00:25:00.708Z,99.90
2023-04-16T00:27:29.246Z,99.90
2023-04-16T00:29:57.622Z,99.90
2023-04-16T00:32:25.834Z,99.90
2023-04-16T00:34:54.054Z,99.90
2023-04-16T00:37:22.220Z,99.90
2023-04-16T00:39:51.601Z,99.90
2023-04-16T00:42:19.654Z,99.90
2023-04-16T00:44:47.901Z,99.90
2023-04-16T00:47:16.733Z,99.90
2023-04-16T00:49:45.182Z,99.90
2023-04-16T00:52:13.646Z,99.90
2023-04-16T00:54:42.065Z,99.90
2023-04-16T00:57:11.240Z,99.90
2023-04-16T00:59:39.491Z,99.90
2023-04-16T01:02:08.264Z,99.90
2023-04-16T01:04:36.684Z,99.90
2023-04-16T01:07:05.021Z,99.90
2023-04-16T01:09:33.270Z,99.90
2023-04-16T01:12:01.503Z,99.90
2023-04-16T01:14:29.934Z,99.90
2023-04-16T01:16:58.082Z,99.90
2023-04-16T01:19:26.310Z,99.90
2023-04-16T01:21:54.574Z,99.90
2023-04-16T01:24:22.896Z,99.90
2023-04-16T01:26:51.017Z,99.90
2023-04-16T01:29:19.244Z,99.90
2023-04-16T01:31:47.788Z,99.90
2023-04-16T01:34:37.119Z,99.90
2023-04-16T01:37:05.864Z,99.90
2023-04-16T01:39:33.950Z,99.90
2023-04-16T01:42:02.954Z,99.90
2023-04-16T01:44:31.351Z,99.90
2023-04-16T01:46:59.728Z,99.90
2023-04-16T01:49:28.019Z,99.90
2023-04-16T01:51:56.114Z,99.90
2023-04-16T01:54:24.411Z,99.90
2023-04-16T01:56:52.644Z,99.90
2023-04-16T01:59:20.841Z,99.90
2023-04-16T02:01:49.575Z,99.90
2023-04-16T02:04:17.843Z,99.90
2023-04-16T02:06:46.176Z,99.90
2023-04-16T02:09:15.150Z,99.90
2023-04-16T02:11:43.410Z,99.90
2023-04-16T02:14:11.575Z,99.90
2023-04-16T02:16:39.832Z,99.90
2023-04-16T02:19:37.126Z,99.90
2023-04-16T02:22:06.159Z,99.90
2023-04-16T02:24:34.198Z,99.90
2023-04-16T02:27:07.329Z,99.90
2023-04-16T02:29:35.628Z,99.90
2023-04-16T02:32:13.606Z,99.90
2023-04-16T02:34:45.460Z,99.90
2023-04-16T02:37:14.894Z,99.90
2023-04-16T02:39:43.045Z,99.90
2023-04-16T02:42:11.170Z,99.90
2023-04-16T02:44:39.450Z,99.90
2023-04-16T02:47:07.623Z,99.90
2023-04-16T02:49:35.893Z,99.90
2023-04-16T02:52:04.056Z,99.90
2023-04-16T02:54:32.422Z,99.90
2023-04-16T02:57:00.491Z,99.90
2023-04-16T02:59:28.639Z,99.90
2023-04-16T03:01:57.154Z,99.90
2023-04-16T03:04:25.480Z,99.90
2023-04-16T03:06:53.652Z,99.90
2023-04-16T03:09:21.797Z,99.90
2023-04-16T03:11:50.028Z,99.90
2023-04-16T03:14:18.578Z,99.90
2023-04-16T03:16:46.707Z,99.90
2023-04-16T03:19:14.972Z,99.90
2023-04-16T03:21:44.821Z,99.90
2023-04-16T03:24:13.123Z,99.90
2023-04-16T03:26:41.428Z,99.90
2023-04-16T03:29:10.848Z,99.90
2023-04-16T03:31:39.391Z,99.90
2023-04-16T03:34:07.584Z,99.90
2023-04-16T03:36:36.498Z,99.90
2023-04-16T03:39:04.701Z,99.90
2023-04-16T03:41:33.083Z,99.90
2023-04-16T03:44:02.016Z,99.90
2023-04-16T03:46:30.601Z,99.90
2023-04-16T03:48:58.859Z,99.90
2023-04-16T03:51:27.242Z,99.90
2023-04-16T03:53:55.444Z,99.90
2023-04-16T03:56:25.036Z,99.90
2023-04-16T03:58:54.363Z,99.90
2023-04-16T04:01:22.645Z,99.90
2023-04-16T04:03:51.294Z,99.90
2023-04-16T04:06:19.718Z,99.90
2023-04-16T04:08:49.251Z,99.90
2023-04-16T04:11:17.792Z,99.90
2023-04-16T04:13:46.249Z,99.90
2023-04-16T04:16:14.611Z,99.90
2023-04-16T04:18:44.804Z,99.90
2023-04-16T04:21:13.365Z,99.90
2023-04-16T04:23:41.524Z,99.90
2023-04-16T04:26:10.038Z,99.90
2023-04-16T04:28:38.327Z,99.90
2023-04-16T04:31:06.724Z,99.90
2023-04-16T04:33:34.802Z,99.90
2023-04-16T04:36:03.532Z,99.90
2023-04-16T04:38:34.045Z,99.90
2023-04-16T04:41:02.265Z,99.90
2023-04-16T04:43:34.525Z,99.90
2023-04-16T04:46:02.945Z,99.90
2023-04-16T04:48:32.800Z,99.90
2023-04-16T04:51:03.542Z,99.90
2023-04-16T04:53:33.121Z,99.90
2023-04-16T04:56:11.067Z,99.90
2023-04-16T04:58:41.936Z,99.90
2023-04-16T05:01:10.170Z,99.90
2023-04-16T05:03:38.439Z,99.90
2023-04-16T05:06:07.930Z,99.90
2023-04-16T05:08:36.285Z,99.90
2023-04-16T05:11:04.571Z,99.90
2023-04-16T05:13:32.736Z,99.90
2023-04-16T05:16:01.032Z,99.90
2023-04-16T05:18:29.216Z,99.90
2023-04-16T05:20:57.291Z,99.90
2023-04-16T05:23:25.692Z,99.90
2023-04-16T05:25:53.841Z,99.90
2023-04-16T05:28:22.179Z,99.90
2023-04-16T05:30:50.235Z,99.90
2023-04-16T05:33:18.512Z,99.90
2023-04-16T05:35:46.688Z,99.90
2023-04-16T05:38:14.872Z,99.90
2023-04-16T05:40:43.648Z,99.90
2023-04-16T05:43:11.781Z,99.90
2023-04-16T05:45:40.031Z,99.90
2023-04-16T05:48:08.990Z,99.90
2023-04-16T05:50:37.846Z,99.90
2023-04-16T05:53:07.841Z,99.90
2023-04-16T05:55:36.999Z,99.90
2023-04-16T05:58:05.355Z,99.90
2023-04-16T06:00:34.006Z,99.90
2023-04-16T06:03:03.164Z,99.90
2023-04-16T06:05:32.200Z,99.90
2023-04-16T06:08:00.436Z,99.90
2023-04-16T06:10:28.669Z,99.90
2023-04-16T06:12:56.673Z,99.90
2023-04-16T06:15:24.921Z,99.90
2023-04-16T06:17:53.062Z,99.90
2023-04-16T06:20:21.411Z,99.90
2023-04-16T06:22:49.840Z,99.90
2023-04-16T06:25:18.312Z,99.90
2023-04-16T06:27:46.513Z,99.90
2023-04-16T06:30:15.958Z,99.90
2023-04-16T06:32:44.683Z,99.90
2023-04-16T06:35:13.087Z,99.90
2023-04-16T06:37:41.319Z,99.90
2023-04-16T06:40:09.908Z,99.90
2023-04-16T06:42:38.186Z,99.90
2023-04-16T06:45:06.831Z,99.90
2023-04-16T06:47:34.966Z,99.90
2023-04-16T06:50:03.208Z,99.90
2023-04-16T06:52:31.608Z,99.90
2023-04-16T06:54:59.856Z,99.90
2023-04-16T06:57:28.011Z,99.90
2023-04-16T06:59:56.272Z,99.90
2023-04-16T07:02:25.088Z,99.90
2023-04-16T07:04:53.259Z,99.90
2023-04-16T07:07:21.501Z,99.90
2023-04-16T07:09:49.674Z,99.90
2023-04-16T07:12:18.761Z,99.90
2023-04-16T07:14:48.252Z,99.90
2023-04-16T07:17:16.512Z,99.90
2023-04-16T07:19:45.162Z,99.90
2023-04-16T07:22:13.417Z,99.90
2023-04-16T07:24:41.818Z,99.90
2023-04-16T07:27:09.911Z,99.90
2023-04-16T07:29:38.259Z,99.90
2023-04-16T07:32:06.643Z,99.90
2023-04-16T07:34:34.956Z,99.90
2023-04-16T07:37:03.041Z,99.90
2023-04-16T07:39:31.306Z,99.90
2023-04-16T07:41:59.682Z,99.90
2023-04-16T07:44:27.910Z,99.90
2023-04-16T07:46:56.058Z,99.90
2023-04-16T07:49:24.371Z,99.90
2023-04-16T07:51:52.650Z,99.90
2023-04-16T07:54:20.868Z,99.90
2023-04-16T07:56:48.908Z,99.90
2023-04-16T07:59:22.920Z,99.90
2023-04-16T08:01:54.260Z,99.90
2023-04-16T08:04:22.853Z,99.90
2023-04-16T08:06:51.838Z,99.90
2023-04-16T08:09:20.947Z,99.90
2023-04-16T08:11:50.166Z,99.90
2023-04-16T08:14:18.598Z,99.90
2023-04-16T08:16:46.731Z,99.90
2023-04-16T08:19:14.866Z,99.90
2023-04-16T08:21:43.145Z,99.90
2023-04-16T08:24:11.496Z,99.90
2023-04-16T08:26:39.700Z,99.90
2023-04-16T08:29:08.166Z,99.90
2023-04-16T08:31:36.587Z,99.90
2023-04-16T08:34:04.846Z,99.90
2023-04-16T08:36:33.006Z,99.90
2023-04-16T08:39:01.188Z,99.90
2023-04-16T08:41:34.866Z,98.20
2023-04-16T08:44:14.720Z,99.90
2023-04-16T08:46:44.394Z,98.30
2023-04-16T08:49:17.528Z,96.30
2023-04-16T08:51:51.806Z,95.10
2023-04-16T08:54:35.335Z,96.80
2023-04-16T08:57:07.473Z,96.10
2023-04-16T08:59:36.578Z,96.10
2023-04-16T09:02:06.439Z,96.50
2023-04-16T09:04:37.325Z,96.20
2023-04-16T09:07:08.576Z,94.50
2023-04-16T09:09:39.197Z,91.70
2023-04-16T09:12:09.354Z,91.60
2023-04-16T09:14:37.363Z,90.90
2023-04-16T09:17:07.553Z,91.10
2023-04-16T09:19:35.552Z,90.20
2023-04-16T09:22:03.958Z,90.00
2023-04-16T09:24:33.001Z,88.10
2023-04-16T09:27:01.961Z,87.30
2023-04-16T09:29:41.688Z,85.00
2023-04-16T09:32:12.172Z,86.40
2023-04-16T09:34:56.578Z,87.40
2023-04-16T09:37:26.169Z,87.50
2023-04-16T09:39:59.415Z,90.80
2023-04-16T09:42:32.456Z,93.00
2023-04-16T09:45:03.374Z,95.10
2023-04-16T09:47:46.653Z,95.80
2023-04-16T09:50:20.367Z,96.50
2023-04-16T09:52:52.347Z,97.90
2023-04-16T09:55:28.593Z,99.90
2023-04-16T09:58:00.933Z,97.90
2023-04-16T10:00:31.532Z,99.80
2023-04-16T10:03:07.339Z,99.60
2023-04-16T10:05:36.138Z,99.90
2023-04-16T10:08:11.605Z,99.30
2023-04-16T10:10:39.918Z,99.90
2023-04-16T10:13:08.569Z,99.90
2023-04-16T10:15:37.321Z,99.90
2023-04-16T10:18:06.740Z,98.60
2023-04-16T10:20:35.480Z,99.60
2023-04-16T10:23:05.445Z,98.40
2023-04-16T10:25:34.027Z,99.50
2023-04-16T10:28:02.965Z,99.90
2023-04-16T10:30:31.586Z,98.60
2023-04-16T10:33:00.838Z,99.90
2023-04-16T10:35:29.118Z,99.90
2023-04-16T10:38:23.844Z,98.90
2023-04-16T10:40:58.853Z,99.90
2023-04-16T10:43:27.215Z,99.90
2023-04-16T10:45:55.599Z,99.90
2023-04-16T10:48:26.312Z,99.90
2023-04-16T10:50:58.725Z,99.00
2023-04-16T10:53:28.083Z,98.70
2023-04-16T10:56:05.445Z,99.90
2023-04-16T10:58:36.870Z,99.90
2023-04-16T11:01:11.479Z,99.90
2023-04-16T11:03:47.767Z,99.90
2023-04-16T11:06:18.104Z,99.90
2023-04-16T11:08:54.432Z,98.90
2023-04-16T11:11:23.907Z,98.00
2023-04-16T11:13:56.190Z,98.90
2023-04-16T11:16:26.309Z,99.90
2023-04-16T11:18:56.761Z,98.80
2023-04-16T11:21:25.916Z,99.90
2023-04-16T11:23:54.745Z,99.90
2023-04-16T11:26:29.883Z,99.30
2023-04-16T11:28:58.191Z,99.90
2023-04-16T11:31:26.658Z,98.80
2023-04-16T11:33:57.159Z,97.30
2023-04-16T11:36:27.459Z,99.00
2023-04-16T11:39:02.736Z,99.90
2023-04-16T11:41:31.353Z,99.90
2023-04-16T11:43:59.658Z,99.90
2023-04-16T11:46:40.612Z,99.90
2023-04-16T11:49:09.378Z,99.90
2023-04-16T11:51:42.403Z,99.90
2023-04-16T11:54:18.615Z,99.90
2023-04-16T11:56:48.582Z,99.90
2023-04-16T11:59:21.622Z,99.90
2023-04-16T12:01:52.154Z,99.90
2023-04-16T12:04:23.335Z,99.90
2023-04-16T12:07:08.880Z,99.90
2023-04-16T12:09:40.523Z,99.90
2023-04-16T12:12:28.723Z,99.90
2023-04-16T12:14:57.895Z,99.90
2023-04-16T12:17:26.770Z,99.90
2023-04-16T12:20:03.108Z,99.90
2023-04-16T12:22:37.022Z,99.90
2023-04-16T12:25:13.710Z,99.90
2023-04-16T12:27:46.827Z,99.90
2023-04-16T12:30:25.710Z,99.90
2023-04-16T12:33:16.774Z,99.90
2023-04-16T12:35:45.171Z,99.90
2023-04-16T12:38:13.853Z,99.90
2023-04-16T12:40:42.350Z,99.90
2023-04-16T12:43:11.163Z,99.90
2023-04-16T12:45:40.570Z,99.90
2023-04-16T12:48:08.952Z,99.90
2023-04-16T12:50:37.420Z,99.90
2023-04-16T12:53:05.641Z,99.90
2023-04-16T12:55:33.946Z,99.90
2023-04-16T12:58:02.277Z,99.90
2023-04-16T13:00:30.562Z,99.90
2023-04-16T13:02:58.892Z,99.90
2023-04-16T13:05:27.600Z,99.90
2023-04-16T13:07:55.999Z,99.90
2023-04-16T13:10:24.353Z,99.90
2023-04-16T13:12:52.572Z,99.90
2023-04-16T13:15:20.994Z,99.90
2023-04-16T13:17:49.214Z,99.90
2023-04-16T13:20:17.661Z,99.90
2023-04-16T13:22:45.933Z,99.90
2023-04-16T13:25:14.345Z,99.90
2023-04-16T13:27:42.590Z,99.90
2023-04-16T13:30:11.440Z,99.90
2023-04-16T13:32:39.835Z,99.90
2023-04-16T13:35:08.394Z,99.90
2023-04-16T13:37:36.673Z,99.90
2023-04-16T13:40:05.260Z,99.90
2023-04-16T13:42:33.495Z,99.90
2023-04-16T13:45:01.708Z,99.90
2023-04-16T13:47:30.065Z,99.90
2023-04-16T13:49:58.432Z,99.90
2023-04-16T13:52:26.598Z,99.90
2023-04-16T13:54:54.825Z,99.90
2023-04-16T13:57:23.117Z,99.90
2023-04-16T13:59:51.517Z,99.90
2023-04-16T14:02:20.732Z,99.90
2023-04-16T14:04:49.532Z,99.90
2023-04-16T14:07:17.783Z,99.90
2023-04-16T14:09:46.102Z,99.90
2023-04-16T14:12:14.274Z,99.90
2023-04-16T14:14:42.505Z,99.90
2023-04-16T14:17:10.837Z,99.90
2023-04-16T14:19:39.099Z,99.90
2023-04-16T14:22:08.770Z,99.90
2023-04-16T14:24:37.795Z,99.90
2023-04-16T14:27:06.009Z,99.90
2023-04-16T14:29:34.354Z,99.90
2023-04-16T14:32:02.659Z,99.90
2023-04-16T14:34:30.985Z,99.90
2023-04-16T14:36:59.345Z,99.90
2023-04-16T14:39:27.875Z,99.90
2023-04-16T14:41:55.946Z,99.90
2023-04-16T14:44:24.166Z,99.90
2023-04-16T14:46:52.436Z,99.90
2023-04-16T14:49:20.709Z,99.90
2023-04-16T14:51:49.009Z,99.90
2023-04-16T14:54:17.255Z,99.90
2023-04-16T14:56:45.928Z,99.90
2023-04-16T14:59:14.458Z,99.90
2023-04-16T15:01:43.208Z,99.90
2023-04-16T15:04:11.656Z,99.90
2023-04-16T15:06:40.095Z,99.90
2023-04-16T15:09:08.918Z,99.90
2023-04-16T15:11:37.133Z,99.90
2023-04-16T15:14:05.510Z,99.90
2023-04-16T15:16:33.983Z,99.90
2023-04-16T15:19:04.817Z,99.90
2023-04-16T15:21:34.177Z,99.90
2023-04-16T15:24:04.601Z,99.90
2023-04-16T15:26:33.048Z,99.90
2023-04-16T15:29:01.344Z,99.90
2023-04-16T15:31:29.800Z,99.90
2023-04-16T15:33:58.303Z,99.90
2023-04-16T15:36:26.588Z,99.90
2023-04-16T15:38:54.922Z,99.90
2023-04-16T15:41:23.271Z,99.90
2023-04-16T15:43:51.644Z,99.90
2023-04-16T15:46:20.034Z,99.90
2023-04-16T15:48:48.282Z,99.90
2023-04-16T15:51:16.795Z,99.90
2023-04-16T15:53:45.119Z,99.90
2023-04-16T15:56:13.410Z,99.90
2023-04-16T15:58:41.614Z,99.90
2023-04-16T16:01:09.892Z,99.90
2023-04-16T16:03:38.367Z,99.90
2023-04-16T16:06:07.258Z,99.90
2023-04-16T16:08:36.021Z,99.90
2023-04-16T16:11:04.741Z,99.90
2023-04-16T16:13:32.914Z,99.90
2023-04-16T16:16:01.305Z,99.90
2023-04-16T16:18:29.634Z,99.90
2023-04-16T16:21:00.665Z,99.90
2023-04-16T16:23:28.987Z,99.90
2023-04-16T16:25:57.287Z,99.90
2023-04-16T16:28:25.620Z,99.90
2023-04-16T16:30:53.900Z,99.90
2023-04-16T16:33:22.532Z,99.90
2023-04-16T16:35:50.803Z,99.90
2023-04-16T16:38:18.889Z,99.90
2023-04-16T16:40:47.193Z,99.90
2023-04-16T16:43:15.516Z,99.90
2023-04-16T16:45:44.088Z,99.90
2023-04-16T16:48:12.309Z,99.90
2023-04-16T16:50:40.658Z,99.90
2023-04-16T16:53:09.096Z,99.90
2023-04-16T16:55:37.387Z,99.90
2023-04-16T16:58:05.834Z,99.90
2023-04-16T17:00:33.930Z,99.90
2023-04-16T17:03:02.455Z,99.90
2023-04-16T17:05:30.801Z,99.90
2023-04-16T17:07:59.221Z,99.90
2023-04-16T17:10:27.401Z,99.90
2023-04-16T17:12:55.682Z,99.90
2023-04-16T17:15:24.036Z,99.90
2023-04-16T17:17:52.437Z,99.90
2023-04-16T17:20:26.643Z,99.90
2023-04-16T17:22:55.012Z,99.90
2023-04-16T17:25:23.302Z,99.90
2023-04-16T17:27:51.475Z,99.90
2023-04-16T17:30:19.699Z,99.90
2023-04-16T17:32:48.089Z,99.90
2023-04-16T17:35:16.335Z,99.90
2023-04-16T17:37:44.725Z,99.90
2023-04-16T17:40:13.106Z,99.90
2023-04-16T17:42:41.471Z,99.90
2023-04-16T17:45:10.084Z,99.90
2023-04-16T17:47:39.115Z,99.90
2023-04-16T17:50:08.674Z,99.90
2023-04-16T17:52:36.939Z,99.90
2023-04-16T17:55:06.178Z,99.90
2023-04-16T17:57:34.762Z,99.90
2023-04-16T18:00:02.951Z,99.90
2023-04-16T18:02:40.170Z,99.90
2023-04-16T18:05:09.433Z,99.90
2023-04-16T18:07:37.716Z,99.90
2023-04-16T18:10:06.564Z,99.90
2023-04-16T18:12:34.991Z,99.90
2023-04-16T18:15:03.207Z,99.90
2023-04-16T18:17:31.581Z,99.90
2023-04-16T18:19:59.674Z,99.90
2023-04-16T18:22:28.011Z,99.90
2023-04-16T18:24:56.198Z,99.90
2023-04-16T18:27:24.392Z,99.90
2023-04-16T18:29:54.592Z,99.90
2023-04-16T18:32:23.647Z,99.90
2023-04-16T18:34:52.863Z,99.90
2023-04-16T18:37:21.173Z,99.90
2023-04-16T18:39:49.648Z,99.90
2023-04-16T18:42:17.821Z,99.90
2023-04-16T18:44:53.803Z,99.90
2023-04-16T18:47:22.560Z,99.90
2023-04-16T18:49:51.046Z,99.90
2023-04-16T18:52:19.254Z,99.90
2023-04-16T18:54:47.555Z,99.90
2023-04-16T18:57:15.944Z,99.90
2023-04-16T18:59:44.080Z,99.90
2023-04-16T19:02:12.421Z,99.90
2023-04-16T19:04:40.676Z,99.90
2023-04-16T19:07:09.096Z,99.90
2023-04-16T19:09:37.215Z,99.90
2023-04-16T19:12:05.726Z,99.90
2023-04-16T19:14:34.124Z,99.90
2023-04-16T19:17:02.382Z,99.90
2023-04-16T19:19:30.579Z,99.90
2023-04-16T19:21:58.887Z,99.90
2023-04-16T19:24:27.160Z,99.90
2023-04-16T19:26:55.474Z,99.90
2023-04-16T19:29:23.705Z,99.90
2023-04-16T19:31:51.998Z,99.90
2023-04-16T19:34:20.286Z,99.90
2023-04-16T19:36:48.662Z,99.90
2023-04-16T19:39:16.746Z,99.90
2023-04-16T19:41:45.114Z,99.90
2023-04-16T19:44:13.348Z,99.90
2023-04-16T19:46:41.679Z,99.90
2023-04-16T19:49:10.261Z,99.90
2023-04-16T19:51:38.774Z,99.90
2023-04-16T19:54:07.252Z,99.90
2023-04-16T19:56:35.519Z,99.90
2023-04-16T19:59:03.728Z,99.90
2023-04-16T20:01:32.052Z,99.90
2023-04-16T20:04:00.390Z,99.90
2023-04-16T20:06:28.824Z,99.90
2023-04-16T20:08:57.349Z,99.90
2023-04-16T20:11:25.670Z,99.90
2023-04-16T20:13:53.868Z,99.90
2023-04-16T20:16:22.235Z,99.90
2023-04-16T20:18:50.672Z,99.90
2023-04-16T20:21:18.892Z,99.90
2023-04-16T20:23:47.414Z,99.90
2023-04-16T20:26:16.342Z,99.90
2023-04-16T20:28:47.529Z,99.90
2023-04-16T20:31:15.767Z,99.90
2023-04-16T20:33:44.165Z,99.90
2023-04-16T20:36:12.414Z,99.90
2023-04-16T20:38:40.461Z,99.90
2023-04-16T20:41:09.060Z,99.90
2023-04-16T20:43:41.402Z,99.90
2023-04-16T20:46:10.917Z,99.90
2023-04-16T20:48:39.850Z,99.90
2023-04-16T20:51:08.524Z,99.90
2023-04-16T20:53:36.902Z,99.90
2023-04-16T20:56:05.202Z,99.90
2023-04-16T20:58:33.601Z,99.90
2023-04-16T21:01:01.871Z,99.90
2023-04-16T21:03:30.276Z,99.90
2023-04-16T21:05:58.615Z,99.90
2023-04-16T21:08:26.921Z,99.90
2023-04-16T21:10:55.412Z,99.90
2023-04-16T21:13:23.574Z,99.90
2023-04-16T21:15:52.004Z,99.90
2023-04-16T21:18:20.236Z,99.90
2023-04-16T21:20:48.521Z,99.90
2023-04-16T21:23:16.796Z,99.90
2023-04-16T21:25:45.095Z,99.90
2023-04-16T21:28:13.289Z,99.90
2023-04-16T21:30:42.066Z,99.90
2023-04-16T21:33:10.312Z,99.90
2023-04-16T21:35:38.527Z,99.90
2023-04-16T21:38:06.794Z,99.90
2023-04-16T21:40:34.973Z,99.90
2023-04-16T21:43:03.139Z,99.90
2023-04-16T21:45:31.412Z,99.90
2023-04-16T21:47:59.584Z,99.90
2023-04-16T21:50:28.001Z,99.90
2023-04-16T21:52:56.151Z,99.90
2023-04-16T21:55:24.551Z,99.90
2023-04-16T21:57:52.717Z,99.90
2023-04-16T22:00:21.201Z,99.90
2023-04-16T22:02:49.377Z,99.90
2023-04-16T22:05:17.802Z,99.90
2023-04-16T22:07:46.061Z,99.90
2023-04-16T22:10:15.153Z,99.90
2023-04-16T22:12:44.616Z,99.90
2023-04-16T22:15:14.080Z,99.90
2023-04-16T22:17:42.437Z,99.90
2023-04-16T22:20:10.920Z,99.90
2023-04-16T22:22:40.066Z,99.90
2023-04-16T22:25:08.890Z,99.90
2023-04-16T22:27:37.304Z,99.90
2023-04-16T22:30:07.773Z,99.90
2023-04-16T22:32:36.154Z,99.90
2023-04-16T22:35:04.805Z,99.90
2023-04-16T22:37:32.996Z,99.90
2023-04-16T22:40:01.390Z,99.90
2023-04-16T22:42:29.568Z,99.90
2023-04-16T22:44:58.570Z,99.90
2023-04-16T22:47:26.885Z,99.90
2023-04-16T22:49:55.264Z,99.90
2023-04-16T22:52:23.645Z,99.90
2023-04-16T22:54:51.934Z,99.90
2023-04-16T22:57:20.330Z,99.90
2023-04-16T22:59:48.712Z,99.90
2023-04-16T23:02:17.228Z,99.90
2023-04-16T23:04:47.137Z,99.90
2023-04-16T23:07:16.107Z,99.90
2023-04-16T23:09:44.353Z,99.90
2023-04-16T23:12:13.916Z,99.90
2023-04-16T23:14:43.862Z,99.90
2023-04-16T23:17:12.807Z,99.90
2023-04-16T23:21:03.735Z,99.90
2023-04-16T23:23:31.940Z,99.90
2023-04-16T23:26:00.045Z,99.90
2023-04-16T23:28:28.490Z,99.90
2023-04-16T23:30:56.831Z,99.90
2023-04-16T23:33:24.971Z,99.90
2023-04-16T23:35:53.326Z,99.90
2023-04-16T23:38:21.615Z,99.90
2023-04-16T23:40:49.700Z,99.90
2023-04-16T23:43:18.068Z,99.90
2023-04-16T23:45:46.506Z,99.90
2023-04-16T23:48:15.986Z,99.90
2023-04-16T23:50:44.429Z,99.90
2023-04-16T23:53:12.888Z,99.90
2023-04-16T23:55:40.982Z,99.90
2023-04-16T23:58:09.547Z,99.90
